createdAt,value
2022-09-05T00:00:02.183Z,49.76
2022-09-05T00:02:41.716Z,49.96
2022-09-05T00:05:46.509Z,50.30
2022-09-05T00:08:39.111Z,50.43
2022-09-05T00:11:43.176Z,50.79
2022-09-05T00:14:48.723Z,50.93
2022-09-05T00:17:22.539Z,50.72
2022-09-05T00:24:20.975Z,50.91
2022-09-05T00:24:42.355Z,50.99
2022-09-05T00:26:17.199Z,50.96
2022-09-05T00:28:54.823Z,51.03
2022-09-05T00:31:53.417Z,51.22
2022-09-05T00:34:47.868Z,51.55
2022-09-05T00:37:28.949Z,51.56
2022-09-05T00:40:18.387Z,51.69
2022-09-05T00:42:50.215Z,51.89
2022-09-05T00:45:27.585Z,52.17
2022-09-05T00:48:05.650Z,52.28
2022-09-05T00:50:44.553Z,52.45
2022-09-05T00:53:18.115Z,52.16
2022-09-05T00:55:58.842Z,52.73
2022-09-05T00:58:57.435Z,52.55
2022-09-05T01:01:33.614Z,52.89
2022-09-05T01:04:23.678Z,53.16
2022-09-05T01:07:08.126Z,53.36
2022-09-05T01:09:51.718Z,53.02
2022-09-05T01:12:36.514Z,53.42
2022-09-05T01:15:23.439Z,53.54
2022-09-05T01:18:16.355Z,53.53
2022-09-05T01:21:02.847Z,53.75
2022-09-05T01:24:04.801Z,53.72
2022-09-05T01:26:59.184Z,53.91
2022-09-05T01:29:38.570Z,53.89
2022-09-05T01:32:22.857Z,54.19
2022-09-05T01:35:02.836Z,54.22
2022-09-05T01:37:39.285Z,54.32
2022-09-05T01:40:25.674Z,54.38
2022-09-05T01:43:12.066Z,54.49
2022-09-05T01:45:51.543Z,54.10
2022-09-05T01:48:30.744Z,54.14
2022-09-05T01:51:28.370Z,54.31
2022-09-05T01:54:19.836Z,54.62
2022-09-05T01:57:04.770Z,54.96
2022-09-05T01:59:42.283Z,54.89
2022-09-05T02:02:37.721Z,54.62
2022-09-05T02:05:47.369Z,55.01
2022-09-05T02:08:30.608Z,55.06
2022-09-05T02:11:08.229Z,55.37
2022-09-05T02:14:01.109Z,54.90
2022-09-05T02:16:42.535Z,54.97
2022-09-05T02:19:18.183Z,55.24
2022-09-05T02:21:56.090Z,55.33
2022-09-05T02:24:29.337Z,55.61
2022-09-05T02:28:05.036Z,55.26
2022-09-05T02:30:20.502Z,55.62
2022-09-05T02:33:06.569Z,55.37
2022-09-05T02:35:46.057Z,55.60
2022-09-05T02:42:07.991Z,55.57
2022-09-05T02:45:09.514Z,55.70
2022-09-05T02:45:16.412Z,55.44
2022-09-05T02:47:18.801Z,55.48
2022-09-05T02:54:14.260Z,55.53
2022-09-05T02:57:28.265Z,55.28
2022-09-05T02:57:33.495Z,55.19
2022-09-05T02:59:09.035Z,55.29
2022-09-05T03:01:57.389Z,55.02
2022-09-05T03:04:32.732Z,55.14
2022-09-05T03:07:15.342Z,55.15
2022-09-05T03:10:01.703Z,55.21
2022-09-05T03:13:10.052Z,54.92
2022-09-05T03:16:19.340Z,54.88
2022-09-05T03:19:20.499Z,54.92
2022-09-05T03:22:22.515Z,54.90
2022-09-05T03:25:25.934Z,54.90
2022-09-05T03:28:20.725Z,54.71
2022-09-05T03:31:04.011Z,54.59
2022-09-05T03:33:54.758Z,54.41
2022-09-05T03:37:03.331Z,54.28
2022-09-05T03:40:21.225Z,54.32
2022-09-05T03:43:10.176Z,54.14
2022-09-05T03:46:03.296Z,53.95
2022-09-05T03:48:53.231Z,54.26
2022-09-05T03:57:12.367Z,54.49
2022-09-05T03:57:22.569Z,54.15
2022-09-05T03:58:03.452Z,54.25
2022-09-05T04:01:28.302Z,54.02
2022-09-05T04:08:09.002Z,54.03
2022-09-05T04:08:16.281Z,53.99
2022-09-05T04:09:50.665Z,54.13
2022-09-05T04:12:22.981Z,54.21
2022-09-05T04:14:55.531Z,54.01
2022-09-05T04:17:32.865Z,54.05
2022-09-05T04:20:06.275Z,53.78
2022-09-05T04:22:59.404Z,54.04
2022-09-05T04:25:40.580Z,53.85
2022-09-05T04:28:20.625Z,53.80
2022-09-05T04:30:53.648Z,53.83
2022-09-05T04:33:35.918Z,53.73
2022-09-05T04:36:18.091Z,53.66
2022-09-05T04:38:46.999Z,53.67
2022-09-05T04:41:17.225Z,53.57
2022-09-05T04:43:50.245Z,53.77
2022-09-05T04:46:24.800Z,53.55
2022-09-05T04:49:03.250Z,53.41
2022-09-05T04:52:00.214Z,53.74
2022-09-05T04:54:46.909Z,53.99
2022-09-05T04:57:22.942Z,53.95
2022-09-05T05:05:59.243Z,53.75
2022-09-05T05:06:17.341Z,53.70
2022-09-05T05:06:20.303Z,53.78
2022-09-05T05:08:51.680Z,53.46
2022-09-05T05:17:20.926Z,53.65
2022-09-05T05:18:13.565Z,53.25
2022-09-05T05:18:16.109Z,53.63
2022-09-05T05:20:40.257Z,53.29
2022-09-05T05:23:11.643Z,53.63
2022-09-05T05:25:48.814Z,53.70
2022-09-05T05:28:27.049Z,53.64
2022-09-05T05:31:01.862Z,53.37
2022-09-05T05:33:33.697Z,53.06
2022-09-05T05:36:04.770Z,53.39
2022-09-05T05:38:41.236Z,53.38
2022-09-05T05:41:18.622Z,52.99
2022-09-05T05:43:48.387Z,52.91
2022-09-05T05:46:28.003Z,52.85
2022-09-05T05:49:09.626Z,52.79
2022-09-05T05:52:02.124Z,52.74
2022-09-05T05:54:38.483Z,52.84
2022-09-05T05:57:39.942Z,52.53
2022-09-05T06:00:27.349Z,52.28
2022-09-05T06:03:36.345Z,52.39
2022-09-05T06:06:21.790Z,52.55
2022-09-05T06:14:48.343Z,52.25
2022-09-05T06:15:00.483Z,52.28
2022-09-05T06:15:46.733Z,51.90
2022-09-05T06:18:45.826Z,51.93
2022-09-05T06:22:11.591Z,51.46
2022-09-05T06:25:17.698Z,51.22
2022-09-05T06:28:18.530Z,50.99
2022-09-05T06:30:57.618Z,50.92
2022-09-05T06:33:57.004Z,50.93
2022-09-05T06:36:43.948Z,50.68
2022-09-05T06:39:18.729Z,50.60
2022-09-05T06:42:05.016Z,49.75
2022-09-05T06:44:50.481Z,49.97
2022-09-05T06:47:24.120Z,49.99
2022-09-05T06:50:24.303Z,49.47
2022-09-05T06:53:27.211Z,49.08
2022-09-05T06:56:14.394Z,48.62
2022-09-05T06:59:42.687Z,48.05
2022-09-05T07:02:44.348Z,47.91
2022-09-05T07:05:39.470Z,48.18
2022-09-05T07:08:34.946Z,48.11
2022-09-05T07:11:16.378Z,47.94
2022-09-05T07:13:56.028Z,47.99
2022-09-05T07:16:37.744Z,48.08
2022-09-05T07:19:27.280Z,48.07
2022-09-05T07:22:48.805Z,47.91
2022-09-05T07:25:10.655Z,47.83
2022-09-05T07:28:25.731Z,47.53
2022-09-05T07:30:35.299Z,47.25
2022-09-05T07:33:05.412Z,47.55
2022-09-05T07:35:41.477Z,46.79
2022-09-05T07:38:15.016Z,45.27
2022-09-05T07:40:51.421Z,44.30
2022-09-05T07:43:24.022Z,43.34
2022-09-05T07:46:06.397Z,42.39
2022-09-05T07:48:39.721Z,42.53
2022-09-05T07:53:46.412Z,42.56
2022-09-05T07:57:01.854Z,42.74
2022-09-05T07:59:54.845Z,41.63
2022-09-05T08:02:22.838Z,42.05
2022-09-05T08:04:51.499Z,41.45
2022-09-05T08:07:49.440Z,41.44
2022-09-05T08:10:16.039Z,41.15
2022-09-05T08:13:24.167Z,41.05
2022-09-05T08:16:10.763Z,39.37
2022-09-05T08:18:40.947Z,38.20
2022-09-05T08:21:13.480Z,38.07
2022-09-05T08:23:53.129Z,36.15
2022-09-05T08:26:32.759Z,35.25
2022-09-05T08:29:18.774Z,34.03
2022-09-05T08:31:52.595Z,33.38
2022-09-05T08:34:43.984Z,32.70
2022-09-05T08:37:21.296Z,33.08
2022-09-05T08:39:57.496Z,32.85
2022-09-05T08:43:00.410Z,32.93
2022-09-05T08:46:40.345Z,33.19
2022-09-05T08:48:41.514Z,34.40
2022-09-05T08:51:20.655Z,35.14
2022-09-05T08:54:17.593Z,35.73
2022-09-05T08:56:56.292Z,35.19
2022-09-05T09:00:19.753Z,33.27
2022-09-05T09:03:04.500Z,32.96
2022-09-05T09:06:13.690Z,33.08
2022-09-05T09:08:55.905Z,32.65
2022-09-05T09:11:34.276Z,32.92
2022-09-05T09:14:36.577Z,32.96
2022-09-05T09:17:20.083Z,33.65
2022-09-05T09:19:52.230Z,32.84
2022-09-05T09:22:38.096Z,32.57
2022-09-05T09:25:14.450Z,32.49
2022-09-05T09:28:48.538Z,34.15
2022-09-05T09:30:58.115Z,34.47
2022-09-05T09:33:35.465Z,35.39
2022-09-05T09:36:08.809Z,35.24
2022-09-05T09:38:44.705Z,36.09
2022-09-05T09:41:38.528Z,37.63
2022-09-05T09:44:36.009Z,37.41
2022-09-05T09:47:14.060Z,38.08
2022-09-05T09:50:03.131Z,38.83
2022-09-05T09:53:03.738Z,39.11
2022-09-05T09:56:10.037Z,38.70
2022-09-05T09:59:23.322Z,38.93
2022-09-05T10:02:21.991Z,39.14
2022-09-05T10:10:35.027Z,39.51
2022-09-05T10:10:54.448Z,39.24
2022-09-05T10:11:51.403Z,39.10
2022-09-05T10:14:49.408Z,38.79
2022-09-05T10:17:49.432Z,39.83
2022-09-05T10:20:38.200Z,39.34
2022-09-05T10:23:34.441Z,39.97
2022-09-05T10:26:47.324Z,40.13
2022-09-05T10:29:39.018Z,41.25
2022-09-05T10:35:11.522Z,41.89
2022-09-05T10:35:14.792Z,41.71
2022-09-05T10:37:55.966Z,42.15
2022-09-05T10:40:28.922Z,41.73
2022-09-05T10:43:02.519Z,40.88
2022-09-05T10:45:44.937Z,40.24
2022-09-05T10:48:18.814Z,40.42
2022-09-05T10:50:53.922Z,40.06
2022-09-05T10:53:40.532Z,40.46
2022-09-05T10:56:15.211Z,40.75
2022-09-05T10:59:33.160Z,41.13
2022-09-05T11:02:30.417Z,41.23
2022-09-05T11:04:54.471Z,40.92
2022-09-05T11:07:32.375Z,41.38
2022-09-05T11:10:11.706Z,41.22
2022-09-05T11:12:58.591Z,41.05
2022-09-05T11:15:33.955Z,40.76
2022-09-05T11:18:05.175Z,41.00
2022-09-05T11:20:45.966Z,41.09
2022-09-05T11:23:21.931Z,41.58
2022-09-05T11:26:00.755Z,41.26
2022-09-05T11:28:37.674Z,41.62
2022-09-05T11:31:26.359Z,41.63
2022-09-05T11:39:46.455Z,41.84
2022-09-05T11:40:07.271Z,41.51
2022-09-05T11:41:09.778Z,42.02
2022-09-05T11:44:26.298Z,42.20
2022-09-05T11:47:39.804Z,42.59
2022-09-05T11:50:44.807Z,41.82
2022-09-05T11:53:44.552Z,42.11
2022-09-05T11:57:32.292Z,41.93
2022-09-05T12:00:31.225Z,41.70
2022-09-05T12:03:38.496Z,42.02
2022-09-05T12:06:39.063Z,41.98
2022-09-05T12:09:27.924Z,42.18
2022-09-05T12:12:18.622Z,42.32
2022-09-05T12:15:17.008Z,42.60
2022-09-05T12:18:00.661Z,42.29
2022-09-05T12:20:43.105Z,42.34
2022-09-05T12:23:36.864Z,42.41
2022-09-05T12:27:38.280Z,42.69
2022-09-05T12:29:32.769Z,42.57
2022-09-05T12:32:41.777Z,42.68
2022-09-05T12:36:12.247Z,42.85
2022-09-05T12:40:57.405Z,42.15
2022-09-05T12:41:39.617Z,41.82
2022-09-05T12:44:37.494Z,41.86
2022-09-05T12:46:46.619Z,42.14
2022-09-05T12:49:35.097Z,42.51
2022-09-05T12:52:07.162Z,42.03
2022-09-05T12:54:45.494Z,42.04
2022-09-05T13:02:27.804Z,41.94
2022-09-05T13:03:07.651Z,41.78
2022-09-05T13:03:27.096Z,41.81
2022-09-05T13:06:03.293Z,41.57
2022-09-05T13:08:44.168Z,41.90
2022-09-05T13:14:47.560Z,41.63
2022-09-05T13:14:59.364Z,41.39
2022-09-05T13:16:59.388Z,41.15
2022-09-05T13:19:37.490Z,40.70
2022-09-05T13:22:08.664Z,40.90
2022-09-05T13:24:41.627Z,40.48
2022-09-05T13:27:15.764Z,40.43
2022-09-05T13:30:51.895Z,40.89
2022-09-05T13:37:55.596Z,40.64
2022-09-05T13:38:17.485Z,41.00
2022-09-05T13:38:48.982Z,40.90
2022-09-05T13:41:27.297Z,40.90
2022-09-05T13:44:00.253Z,40.37
2022-09-05T13:46:59.427Z,40.25
2022-09-05T13:49:33.286Z,40.40
2022-09-05T13:52:19.762Z,40.42
2022-09-05T13:54:51.958Z,39.87
2022-09-05T13:57:37.155Z,39.96
2022-09-05T14:00:28.958Z,39.31
2022-09-05T14:03:50.617Z,38.92
2022-09-05T14:06:47.838Z,38.79
2022-09-05T14:09:43.230Z,38.98
2022-09-05T14:12:29.594Z,39.48
2022-09-05T14:15:10.031Z,39.32
2022-09-05T14:17:57.751Z,39.50
2022-09-05T14:20:49.820Z,39.29
2022-09-05T14:23:20.052Z,39.25
2022-09-05T14:25:52.902Z,39.12
2022-09-05T14:28:26.809Z,39.51
2022-09-05T14:37:41.285Z,39.24
2022-09-05T14:37:45.203Z,39.25
2022-09-05T14:37:45.689Z,39.49
2022-09-05T14:40:36.629Z,39.27
2022-09-05T14:43:37.802Z,39.83
2022-09-05T14:46:28.441Z,39.49
2022-09-05T14:49:29.015Z,39.76
2022-09-05T14:51:58.432Z,39.78
2022-09-05T15:02:45.639Z,39.04
2022-09-05T15:02:52.292Z,39.07
2022-09-05T15:03:05.350Z,39.16
2022-09-05T15:05:41.938Z,38.72
2022-09-05T15:08:18.278Z,39.04
2022-09-05T15:12:15.727Z,38.62
2022-09-05T15:13:58.048Z,38.36
2022-09-05T15:16:27.487Z,38.52
2022-09-05T15:18:56.316Z,38.36
2022-09-05T15:21:34.084Z,38.42
2022-09-05T15:24:12.919Z,38.68
2022-09-05T15:26:52.692Z,38.22
2022-09-05T15:29:24.020Z,38.40
2022-09-05T15:32:08.989Z,38.65
2022-09-05T15:34:39.431Z,38.55
2022-09-05T15:37:24.270Z,38.54
2022-09-05T15:40:02.415Z,38.85
2022-09-05T15:42:51.140Z,39.03
2022-09-05T15:45:24.293Z,39.36
2022-09-05T15:48:23.399Z,39.04
2022-09-05T15:50:58.625Z,38.92
2022-09-05T15:53:29.703Z,39.02
2022-09-05T15:56:15.117Z,38.90
2022-09-05T15:58:53.152Z,39.37
2022-09-05T16:01:48.639Z,39.11
2022-09-05T16:10:18.161Z,40.01
2022-09-05T16:10:38.382Z,40.66
2022-09-05T16:10:45.591Z,41.25
2022-09-05T16:12:51.949Z,42.24
2022-09-05T16:17:59.076Z,42.64
2022-09-05T16:23:13.819Z,43.44
2022-09-05T16:23:25.483Z,44.34
2022-09-05T16:24:06.307Z,44.96
2022-09-05T16:26:40.700Z,44.95
2022-09-05T16:29:19.445Z,45.42
2022-09-05T16:31:57.177Z,45.93
2022-09-05T16:34:32.020Z,46.10
2022-09-05T16:37:08.920Z,46.06
2022-09-05T16:39:42.456Z,46.38
2022-09-05T16:42:18.083Z,47.36
2022-09-05T16:44:52.755Z,48.01
2022-09-05T16:47:28.448Z,48.72
2022-09-05T16:50:04.307Z,49.50
2022-09-05T16:52:53.519Z,49.85
2022-09-05T16:55:31.360Z,49.78
2022-09-05T16:58:05.467Z,49.83
2022-09-05T17:00:52.073Z,50.21
2022-09-05T17:03:28.691Z,50.23
2022-09-05T17:06:07.759Z,50.94
2022-09-05T17:08:37.586Z,51.34
2022-09-05T17:11:13.721Z,50.91
2022-09-05T17:14:07.333Z,51.13
2022-09-05T17:16:41.933Z,51.20
2022-09-05T17:19:16.331Z,51.20
2022-09-05T17:23:45.581Z,51.31
2022-09-05T17:29:05.976Z,51.42
2022-09-05T17:29:30.407Z,51.23
2022-09-05T17:33:47.133Z,51.35
2022-09-05T17:36:20.123Z,51.43
2022-09-05T17:39:04.089Z,51.46
2022-09-05T17:42:05.139Z,51.45
2022-09-05T17:44:50.670Z,51.60
2022-09-05T17:47:35.671Z,51.50
2022-09-05T17:50:14.575Z,51.57
2022-09-05T17:53:27.018Z,51.58
2022-09-05T17:56:12.949Z,51.42
2022-09-05T17:59:02.297Z,51.89
2022-09-05T18:01:32.476Z,51.67
2022-09-05T18:04:15.805Z,51.72
2022-09-05T18:07:00.484Z,51.93
2022-09-05T18:09:59.101Z,52.03
2022-09-05T18:13:12.415Z,52.23
2022-09-05T18:16:11.093Z,52.27
2022-09-05T18:19:03.826Z,52.33
2022-09-05T18:21:49.595Z,52.50
2022-09-05T18:24:32.676Z,52.75
2022-09-05T18:30:06.006Z,52.71
2022-09-05T18:33:53.537Z,52.66
2022-09-05T18:36:28.101Z,52.91
2022-09-05T18:39:37.851Z,53.22
2022-09-05T18:42:25.962Z,53.05
2022-09-05T18:45:03.254Z,53.35
2022-09-05T18:47:51.202Z,53.39
2022-09-05T18:50:29.214Z,53.21
2022-09-05T18:53:08.919Z,52.95
2022-09-05T18:56:12.254Z,53.17
2022-09-05T18:58:34.501Z,52.94
2022-09-05T19:01:20.936Z,53.05
2022-09-05T19:03:52.493Z,52.87
2022-09-05T19:06:34.984Z,52.67
2022-09-05T19:09:08.343Z,52.94
2022-09-05T19:11:52.810Z,52.48
2022-09-05T19:14:33.618Z,52.66
2022-09-05T19:17:08.770Z,52.72
2022-09-05T19:20:33.321Z,52.62
2022-09-05T19:23:10.314Z,52.26
2022-09-05T19:25:42.229Z,52.27
2022-09-05T19:33:15.672Z,51.97
2022-09-05T19:37:06.828Z,52.19
2022-09-05T19:37:15.602Z,52.22
2022-09-05T19:37:26.270Z,51.72
2022-09-05T19:43:15.658Z,51.83
2022-09-05T19:47:38.726Z,51.37
2022-09-05T19:47:46.937Z,51.25
2022-09-05T19:48:26.931Z,50.87
2022-09-05T19:50:56.751Z,50.83
2022-09-05T19:53:26.261Z,50.23
2022-09-05T19:55:54.838Z,50.15
2022-09-05T19:58:24.465Z,50.18
2022-09-05T20:01:03.443Z,50.03
2022-09-05T20:03:39.314Z,49.81
2022-09-05T20:06:28.988Z,49.75
2022-09-05T20:09:14.496Z,49.63
2022-09-05T20:11:49.466Z,49.51
2022-09-05T20:14:20.815Z,49.39
2022-09-05T20:16:49.990Z,49.68
2022-09-05T20:19:28.777Z,49.17
2022-09-05T20:22:12.746Z,49.33
2022-09-05T20:24:52.675Z,49.22
2022-09-05T20:27:27.077Z,49.15
2022-09-05T20:29:58.310Z,49.28
2022-09-05T20:32:39.366Z,49.46
2022-09-05T20:37:37.497Z,49.41
2022-09-05T20:43:21.190Z,49.29
2022-09-05T20:43:32.826Z,49.84
2022-09-05T20:43:57.415Z,50.50
2022-09-05T20:54:07.046Z,50.98
2022-09-05T20:54:08.386Z,51.18
2022-09-05T20:54:22.767Z,52.19
2022-09-05T20:55:39.994Z,52.11
2022-09-05T20:58:13.650Z,52.31
2022-09-05T21:01:19.757Z,52.53
2022-09-05T21:03:38.143Z,52.61
2022-09-05T21:06:24.197Z,52.95
2022-09-05T21:08:56.037Z,52.77
2022-09-05T21:11:31.885Z,52.85
2022-09-05T21:14:04.469Z,52.79
2022-09-05T21:16:35.642Z,52.88
2022-09-05T21:19:03.855Z,53.00
2022-09-05T21:21:33.591Z,53.03
2022-09-05T21:24:16.502Z,53.18
2022-09-05T21:26:47.665Z,53.27
2022-09-05T21:29:24.996Z,52.79
2022-09-05T21:32:02.024Z,53.37
2022-09-05T21:34:34.337Z,52.83
2022-09-05T21:37:07.837Z,52.40
2022-09-05T21:39:40.137Z,52.06
2022-09-05T21:42:31.522Z,52.07
2022-09-05T21:47:44.280Z,51.83
2022-09-05T21:47:53.118Z,51.87
2022-09-05T21:50:31.677Z,51.57
2022-09-05T21:54:06.501Z,51.16
2022-09-05T21:59:15.091Z,51.24
2022-09-05T21:59:33.301Z,51.41
2022-09-05T22:01:50.984Z,50.90
2022-09-05T22:04:21.268Z,50.80
2022-09-05T22:06:49.310Z,50.71
2022-09-05T22:09:17.633Z,50.51
2022-09-05T22:11:50.679Z,50.66
2022-09-05T22:14:19.329Z,50.37
2022-09-05T22:16:50.647Z,50.27
2022-09-05T22:19:37.441Z,50.38
2022-09-05T22:22:16.621Z,50.39
2022-09-05T22:24:49.654Z,50.17
2022-09-05T22:27:20.151Z,50.28
2022-09-05T22:29:50.671Z,49.99
2022-09-05T22:32:33.885Z,50.06
2022-09-05T22:35:27.854Z,49.71
2022-09-05T22:37:59.126Z,49.74
2022-09-05T22:40:28.033Z,49.63
2022-09-05T22:42:57.095Z,50.04
2022-09-05T22:45:25.147Z,49.85
2022-09-05T22:47:55.009Z,50.01
2022-09-05T22:50:23.625Z,49.67
2022-09-05T22:52:51.750Z,49.54
2022-09-05T22:55:19.983Z,49.52
2022-09-05T22:57:48.030Z,50.08
2022-09-05T23:00:16.323Z,49.86
2022-09-05T23:02:46.930Z,49.61
2022-09-05T23:05:18.813Z,50.01
2022-09-05T23:07:46.800Z,49.92
2022-09-05T23:10:14.920Z,50.17
2022-09-05T23:12:42.967Z,49.92
2022-09-05T23:15:11.724Z,49.96
2022-09-05T23:17:39.648Z,50.01
2022-09-05T23:20:09.009Z,49.94
2022-09-05T23:22:39.152Z,50.10
2022-09-05T23:25:08.058Z,50.36
2022-09-05T23:27:36.861Z,50.40
2022-09-05T23:30:05.987Z,50.32
2022-09-05T23:32:33.940Z,50.21
2022-09-05T23:35:02.251Z,50.51
2022-09-05T23:37:30.192Z,50.59
2022-09-05T23:39:59.567Z,50.99
2022-09-05T23:42:27.577Z,50.63
2022-09-05T23:44:55.604Z,50.77
2022-09-05T23:47:24.118Z,50.59
2022-09-05T23:49:52.167Z,50.98
2022-09-05T23:52:20.014Z,50.76
2022-09-05T23:54:47.940Z,50.92
2022-09-05T23:57:22.223Z,51.02
2022-09-05T23:59:52.481Z,50.88
